SWA1683 KDAL-KSDF
Flight info
| Callsign | SWA1683 |
|---|---|
| Flight time | 1h 39m |
| Altitude | 39000 |
| Route | LNDRE5 BSKAT DCT LIT DCT BUMPY MBELL5 |
| Aircraft | B737/M-SDE2E3FGHIRWXY/LB1 |
Departure
| Time | 2026-05-06 03:40 |
|---|---|
| Airport | Dallas Love Field (KDAL) |
Arrival
| Time | 2026-05-06 05:19 |
|---|---|
| Airport | Louisville Muhammad Ali International Airport (KSDF) |
| Time | Latitude | Longitude | Altitude | Speed | Heading |
|---|---|---|---|---|---|
| 2026-05-06 03:16 | 32.84645 | -96.85042 | 487 ft | 0 kts | 180° |
| 2026-05-06 03:28 | 32.84655 | -96.85042 | 482 ft | 4 kts | 181° |
| 2026-05-06 03:29 | 32.84682 | -96.85040 | 485 ft | 4 kts | 186° |
| 2026-05-06 03:29 | 32.84708 | -96.85035 | 484 ft | 4 kts | 194° |
| 2026-05-06 03:29 | 32.84733 | -96.85024 | 479 ft | 4 kts | 219° |
| 2026-05-06 03:29 | 32.84744 | -96.85006 | 479 ft | 2 kts | 270° |
| 2026-05-06 03:30 | 32.84744 | -96.85001 | 479 ft | 1 kts | 270° |
| 2026-05-06 03:33 | 32.84744 | -96.85003 | 479 ft | 1 kts | 270° |
| 2026-05-06 03:34 | 32.84744 | -96.85036 | 485 ft | 6 kts | 270° |
| 2026-05-06 03:34 | 32.84745 | -96.85090 | 490 ft | 7 kts | 270° |
| 2026-05-06 03:34 | 32.84745 | -96.85147 | 490 ft | 8 kts | 270° |
| 2026-05-06 03:34 | 32.84746 | -96.85218 | 489 ft | 9 kts | 270° |
| 2026-05-06 03:35 | 32.84753 | -96.85291 | 478 ft | 9 kts | 301° |
| 2026-05-06 03:35 | 32.84809 | -96.85312 | 485 ft | 9 kts | 9° |
| 2026-05-06 03:35 | 32.84858 | -96.85340 | 484 ft | 9 kts | 298° |
| 2026-05-06 03:35 | 32.84890 | -96.85416 | 488 ft | 11 kts | 298° |
| 2026-05-06 03:36 | 32.84906 | -96.85500 | 485 ft | 10 kts | 270° |
| 2026-05-06 03:36 | 32.84898 | -96.85582 | 488 ft | 10 kts | 259° |
| 2026-05-06 03:36 | 32.84885 | -96.85662 | 488 ft | 10 kts | 259° |
| 2026-05-06 03:36 | 32.84867 | -96.85738 | 486 ft | 10 kts | 259° |
| 2026-05-06 03:37 | 32.84890 | -96.85809 | 481 ft | 10 kts | 317° |
| 2026-05-06 03:37 | 32.84941 | -96.85869 | 484 ft | 11 kts | 315° |
| 2026-05-06 03:37 | 32.84996 | -96.85931 | 483 ft | 11 kts | 317° |
| 2026-05-06 03:37 | 32.85048 | -96.85992 | 472 ft | 10 kts | 315° |
| 2026-05-06 03:38 | 32.85099 | -96.86052 | 479 ft | 10 kts | 316° |
| 2026-05-06 03:38 | 32.85149 | -96.86109 | 478 ft | 10 kts | 315° |
| 2026-05-06 03:38 | 32.85197 | -96.86166 | 481 ft | 10 kts | 315° |
| 2026-05-06 03:38 | 32.85211 | -96.86234 | 480 ft | 9 kts | 236° |
| 2026-05-06 03:39 | 32.85165 | -96.86290 | 474 ft | 9 kts | 225° |
| 2026-05-06 03:39 | 32.85119 | -96.86321 | 476 ft | 5 kts | 159° |
| 2026-05-06 03:39 | 32.85094 | -96.86296 | 480 ft | 5 kts | 135° |
| 2026-05-06 03:39 | 32.84975 | -96.86159 | 479 ft | 57 kts | 136° |
| 2026-05-06 03:40 | 32.84526 | -96.85641 | 479 ft | 124 kts | 135° |
| 2026-05-06 03:40 | 32.83760 | -96.84766 | 548 ft | 169 kts | 133° |
| 2026-05-06 03:40 | 32.82931 | -96.83786 | 1166 ft | 168 kts | 131° |
| 2026-05-06 03:40 | 32.82112 | -96.82792 | 1748 ft | 170 kts | 128° |
| 2026-05-06 03:41 | 32.81290 | -96.81749 | 2343 ft | 178 kts | 129° |
| 2026-05-06 03:41 | 32.80399 | -96.80681 | 3039 ft | 181 kts | 136° |
| 2026-05-06 03:41 | 32.79500 | -96.79710 | 4014 ft | 167 kts | 144° |
| 2026-05-06 03:41 | 32.78614 | -96.78857 | 4857 ft | 164 kts | 148° |
| 2026-05-06 03:42 | 32.77657 | -96.78029 | 5365 ft | 180 kts | 152° |
| 2026-05-06 03:42 | 32.76552 | -96.77201 | 5899 ft | 192 kts | 155° |
| 2026-05-06 03:42 | 32.75398 | -96.76435 | 6684 ft | 186 kts | 158° |
| 2026-05-06 03:42 | 32.74251 | -96.75768 | 7444 ft | 184 kts | 163° |
| 2026-05-06 03:43 | 32.73040 | -96.75164 | 7999 ft | 195 kts | 167° |
| 2026-05-06 03:43 | 32.71726 | -96.74608 | 8582 ft | 202 kts | 170° |
| 2026-05-06 03:43 | 32.70396 | -96.74119 | 9294 ft | 203 kts | 168° |
| 2026-05-06 03:43 | 32.68988 | -96.73237 | 9044 ft | 266 kts | 145° |
| 2026-05-06 03:44 | 32.67698 | -96.71537 | 9643 ft | 283 kts | 131° |
| 2026-05-06 03:44 | 32.66750 | -96.69400 | 10229 ft | 305 kts | 108° |
| 2026-05-06 03:44 | 32.66412 | -96.66859 | 11004 ft | 313 kts | 96° |
| 2026-05-06 03:44 | 32.66287 | -96.64222 | 11723 ft | 325 kts | 95° |
| 2026-05-06 03:45 | 32.66226 | -96.61539 | 12627 ft | 329 kts | 91° |
| 2026-05-06 03:45 | 32.66379 | -96.58739 | 13142 ft | 349 kts | 85° |
| 2026-05-06 03:45 | 32.66742 | -96.55881 | 14114 ft | 351 kts | 78° |
| 2026-05-06 03:45 | 32.67647 | -96.53241 | 15210 ft | 340 kts | 54° |
| 2026-05-06 03:46 | 32.69125 | -96.50977 | 15537 ft | 365 kts | 42° |
| 2026-05-06 03:46 | 32.71132 | -96.49019 | 15893 ft | 374 kts | 26° |
| 2026-05-06 03:46 | 32.73311 | -96.47469 | 17081 ft | 365 kts | 21° |
| 2026-05-06 03:46 | 32.75580 | -96.46053 | 18116 ft | 359 kts | 17° |
| 2026-05-06 03:47 | 32.77914 | -96.44878 | 18360 ft | 377 kts | 11° |
| 2026-05-06 03:47 | 32.80390 | -96.43924 | 19264 ft | 366 kts | 5° |
| 2026-05-06 03:47 | 32.82900 | -96.43168 | 19747 ft | 379 kts | 2° |
| 2026-05-06 03:47 | 32.85476 | -96.42558 | 20617 ft | 372 kts | 359° |
| 2026-05-06 03:48 | 32.87963 | -96.42075 | 21662 ft | 371 kts | 1° |
| 2026-05-06 03:48 | 32.89020 | -96.41737 | 21918 ft | 382 kts | 8° |
| 2026-05-06 03:49 | 32.91417 | -96.40468 | 23196 ft | 376 kts | 18° |
| 2026-05-06 03:49 | 32.93797 | -96.38907 | 23112 ft | 410 kts | 20° |
| 2026-05-06 03:50 | 32.96346 | -96.37232 | 23571 ft | 413 kts | 20° |
| 2026-05-06 03:50 | 32.98864 | -96.35647 | 24677 ft | 400 kts | 15° |
| 2026-05-06 03:50 | 33.01363 | -96.34326 | 25705 ft | 386 kts | 9° |
| 2026-05-06 03:50 | 33.03580 | -96.33274 | 26095 ft | 393 kts | 8° |
| 2026-05-06 03:51 | 33.06102 | -96.31752 | 26347 ft | 428 kts | 27° |
| 2026-05-06 03:51 | 33.08274 | -96.29073 | 26319 ft | 470 kts | 53° |
| 2026-05-06 03:51 | 33.09649 | -96.25444 | 26292 ft | 487 kts | 77° |
| 2026-05-06 03:51 | 33.09940 | -96.21441 | 26362 ft | 487 kts | 98° |
| 2026-05-06 03:52 | 33.09512 | -96.17470 | 26771 ft | 489 kts | 104° |
| 2026-05-06 03:52 | 33.09024 | -96.13385 | 27370 ft | 494 kts | 99° |
| 2026-05-06 03:52 | 33.09011 | -96.09310 | 27890 ft | 503 kts | 85° |
| 2026-05-06 03:52 | 33.09675 | -96.05185 | 28263 ft | 510 kts | 72° |
| 2026-05-06 03:53 | 33.10863 | -96.01176 | 28626 ft | 516 kts | 65° |
| 2026-05-06 03:53 | 33.12326 | -95.97235 | 29022 ft | 521 kts | 62° |
| 2026-05-06 03:53 | 33.13859 | -95.93306 | 29462 ft | 525 kts | 62° |
| 2026-05-06 03:53 | 33.15366 | -95.89295 | 29919 ft | 530 kts | 64° |
| 2026-05-06 03:54 | 33.16796 | -95.85278 | 30295 ft | 534 kts | 65° |
| 2026-05-06 03:54 | 33.18216 | -95.81176 | 30689 ft | 537 kts | 65° |
| 2026-05-06 03:54 | 33.19644 | -95.77044 | 31072 ft | 540 kts | 65° |
| 2026-05-06 03:54 | 33.21088 | -95.72880 | 31432 ft | 543 kts | 65° |
| 2026-05-06 03:55 | 33.22542 | -95.68694 | 31789 ft | 546 kts | 65° |
| 2026-05-06 03:55 | 33.24004 | -95.64489 | 32149 ft | 549 kts | 65° |
| 2026-05-06 03:55 | 33.25472 | -95.60262 | 32576 ft | 552 kts | 65° |
| 2026-05-06 03:55 | 33.26947 | -95.56007 | 32892 ft | 555 kts | 65° |
| 2026-05-06 03:56 | 33.28410 | -95.51783 | 33198 ft | 558 kts | 65° |
| 2026-05-06 03:56 | 33.29898 | -95.47477 | 33566 ft | 559 kts | 65° |
| 2026-05-06 03:56 | 33.31376 | -95.43190 | 33986 ft | 558 kts | 65° |
| 2026-05-06 03:56 | 33.32850 | -95.38910 | 34375 ft | 556 kts | 65° |
| 2026-05-06 03:57 | 33.34324 | -95.34623 | 34747 ft | 555 kts | 65° |
| 2026-05-06 03:57 | 33.35786 | -95.30367 | 35103 ft | 553 kts | 65° |
| 2026-05-06 03:57 | 33.37241 | -95.26125 | 35573 ft | 549 kts | 65° |
| 2026-05-06 03:57 | 33.38694 | -95.21887 | 35953 ft | 547 kts | 65° |
| 2026-05-06 03:58 | 33.40118 | -95.17726 | 36225 ft | 548 kts | 65° |
| 2026-05-06 03:58 | 33.41565 | -95.13498 | 36487 ft | 549 kts | 65° |
| 2026-05-06 03:58 | 33.43008 | -95.09271 | 36794 ft | 548 kts | 65° |
| 2026-05-06 03:58 | 33.44448 | -95.05048 | 37142 ft | 547 kts | 65° |
| 2026-05-06 03:59 | 33.45883 | -95.00832 | 37455 ft | 546 kts | 65° |
| 2026-05-06 03:59 | 33.47312 | -94.96631 | 37736 ft | 545 kts | 65° |
| 2026-05-06 03:59 | 33.48741 | -94.92421 | 38011 ft | 545 kts | 65° |
| 2026-05-06 03:59 | 33.50169 | -94.88210 | 38284 ft | 545 kts | 65° |
| 2026-05-06 04:00 | 33.51595 | -94.84002 | 38530 ft | 545 kts | 65° |
| 2026-05-06 04:00 | 33.53018 | -94.79793 | 38739 ft | 545 kts | 65° |
| 2026-05-06 04:00 | 33.55882 | -94.71314 | 38771 ft | 550 kts | 65° |
| 2026-05-06 04:01 | 33.58737 | -94.62829 | 38759 ft | 545 kts | 65° |
| 2026-05-06 04:01 | 33.61553 | -94.54435 | 38776 ft | 540 kts | 65° |
| 2026-05-06 04:02 | 33.64350 | -94.46084 | 38764 ft | 539 kts | 65° |
| 2026-05-06 04:02 | 33.67138 | -94.37738 | 38776 ft | 538 kts | 65° |
| 2026-05-06 04:03 | 33.69895 | -94.29463 | 38775 ft | 537 kts | 65° |
| 2026-05-06 04:03 | 33.72968 | -94.21326 | 38784 ft | 531 kts | 55° |
| 2026-05-06 04:04 | 33.76682 | -94.13659 | 38780 ft | 529 kts | 53° |
| 2026-05-06 04:04 | 33.79799 | -94.07332 | 38788 ft | 529 kts | 54° |
| 2026-05-06 04:05 | 33.83499 | -93.99679 | 38782 ft | 529 kts | 54° |
| 2026-05-06 04:05 | 33.87169 | -93.91975 | 38788 ft | 529 kts | 54° |
| 2026-05-06 04:06 | 33.90825 | -93.84274 | 38809 ft | 531 kts | 55° |
| 2026-05-06 04:06 | 33.94472 | -93.76586 | 38810 ft | 533 kts | 54° |
| 2026-05-06 04:07 | 33.98165 | -93.68787 | 38796 ft | 535 kts | 54° |
| 2026-05-06 04:07 | 34.01855 | -93.60978 | 38796 ft | 537 kts | 54° |
| 2026-05-06 04:08 | 34.05638 | -93.53203 | 38780 ft | 536 kts | 51° |
| 2026-05-06 04:08 | 34.09769 | -93.45720 | 38801 ft | 535 kts | 49° |
| 2026-05-06 04:09 | 34.13955 | -93.38348 | 38801 ft | 536 kts | 49° |
| 2026-05-06 04:09 | 34.18133 | -93.30885 | 38826 ft | 536 kts | 49° |
| 2026-05-06 04:10 | 34.22283 | -93.23374 | 38809 ft | 537 kts | 50° |
| 2026-05-06 04:10 | 34.26417 | -93.15850 | 38816 ft | 536 kts | 50° |
| 2026-05-06 04:11 | 34.30509 | -93.08396 | 38810 ft | 535 kts | 50° |
| 2026-05-06 04:11 | 34.34629 | -93.00880 | 38803 ft | 535 kts | 49° |
| 2026-05-06 04:12 | 34.38732 | -92.93383 | 38801 ft | 534 kts | 49° |
| 2026-05-06 04:12 | 34.42831 | -92.85878 | 38793 ft | 533 kts | 50° |
| 2026-05-06 04:13 | 34.46894 | -92.78421 | 38810 ft | 534 kts | 49° |
| 2026-05-06 04:13 | 34.50984 | -92.70901 | 38816 ft | 534 kts | 49° |
| 2026-05-06 04:14 | 34.55064 | -92.63379 | 38805 ft | 534 kts | 49° |
| 2026-05-06 04:14 | 34.59143 | -92.55846 | 38816 ft | 534 kts | 49° |
| 2026-05-06 04:15 | 34.63223 | -92.48297 | 38815 ft | 534 kts | 49° |
| 2026-05-06 04:15 | 34.67272 | -92.40787 | 38812 ft | 534 kts | 49° |
| 2026-05-06 04:16 | 34.71337 | -92.33231 | 38857 ft | 534 kts | 49° |
| 2026-05-06 04:16 | 34.75405 | -92.25652 | 38809 ft | 535 kts | 49° |
| 2026-05-06 04:17 | 34.79474 | -92.18058 | 38811 ft | 535 kts | 49° |
| 2026-05-06 04:17 | 34.83636 | -92.10569 | 38804 ft | 532 kts | 45° |
| 2026-05-06 04:18 | 34.88007 | -92.03314 | 38806 ft | 530 kts | 44° |
| 2026-05-06 04:18 | 34.92373 | -91.96139 | 38802 ft | 530 kts | 45° |
| 2026-05-06 04:19 | 34.96739 | -91.88871 | 38789 ft | 530 kts | 45° |
| 2026-05-06 04:19 | 35.01068 | -91.81590 | 38805 ft | 530 kts | 45° |
| 2026-05-06 04:20 | 35.05387 | -91.74300 | 38802 ft | 529 kts | 45° |
| 2026-05-06 04:20 | 35.09695 | -91.67015 | 38803 ft | 527 kts | 45° |
| 2026-05-06 04:21 | 35.13952 | -91.59809 | 38810 ft | 526 kts | 45° |
| 2026-05-06 04:21 | 35.18229 | -91.52553 | 38818 ft | 525 kts | 45° |
| 2026-05-06 04:22 | 35.22487 | -91.45318 | 38821 ft | 523 kts | 45° |
| 2026-05-06 04:23 | 35.28850 | -91.34478 | 38834 ft | 523 kts | 45° |
| 2026-05-06 04:23 | 35.33085 | -91.27244 | 38828 ft | 522 kts | 46° |
| 2026-05-06 04:24 | 35.37318 | -91.19998 | 38840 ft | 523 kts | 46° |
| 2026-05-06 04:24 | 35.41523 | -91.12784 | 38840 ft | 523 kts | 46° |
| 2026-05-06 04:25 | 35.45750 | -91.05518 | 38850 ft | 523 kts | 46° |
| 2026-05-06 04:25 | 35.49981 | -90.98229 | 38889 ft | 523 kts | 46° |
| 2026-05-06 04:26 | 35.54213 | -90.90926 | 38854 ft | 525 kts | 46° |
| 2026-05-06 04:26 | 35.58422 | -90.83645 | 38845 ft | 526 kts | 46° |
| 2026-05-06 04:27 | 35.62662 | -90.76295 | 38859 ft | 527 kts | 46° |
| 2026-05-06 04:27 | 35.66899 | -90.68933 | 38864 ft | 528 kts | 46° |
| 2026-05-06 04:28 | 35.71137 | -90.61556 | 38868 ft | 528 kts | 46° |
| 2026-05-06 04:28 | 35.75378 | -90.54157 | 38910 ft | 529 kts | 46° |
| 2026-05-06 04:29 | 35.79627 | -90.46730 | 38874 ft | 530 kts | 46° |
| 2026-05-06 04:29 | 35.83873 | -90.39290 | 38864 ft | 531 kts | 47° |
| 2026-05-06 04:30 | 35.88095 | -90.31874 | 38856 ft | 531 kts | 46° |
| 2026-05-06 04:30 | 35.92346 | -90.24394 | 38847 ft | 532 kts | 46° |
| 2026-05-06 04:31 | 35.96589 | -90.16913 | 38865 ft | 532 kts | 46° |
| 2026-05-06 04:31 | 36.00833 | -90.09412 | 38860 ft | 532 kts | 46° |
| 2026-05-06 04:32 | 36.05037 | -90.01966 | 38863 ft | 531 kts | 46° |
| 2026-05-06 04:32 | 36.09261 | -89.94467 | 38867 ft | 531 kts | 46° |
| 2026-05-06 04:33 | 36.13478 | -89.86966 | 38856 ft | 531 kts | 46° |
| 2026-05-06 04:33 | 36.17694 | -89.79449 | 38855 ft | 531 kts | 46° |
| 2026-05-06 04:34 | 36.21902 | -89.71931 | 38857 ft | 530 kts | 46° |
| 2026-05-06 04:34 | 36.26099 | -89.64417 | 38891 ft | 530 kts | 47° |
| 2026-05-06 04:35 | 36.30266 | -89.56940 | 38875 ft | 530 kts | 47° |
| 2026-05-06 04:35 | 36.34453 | -89.49409 | 38846 ft | 530 kts | 47° |
| 2026-05-06 04:36 | 36.38644 | -89.41855 | 38857 ft | 530 kts | 47° |
| 2026-05-06 04:36 | 36.42819 | -89.34311 | 38856 ft | 530 kts | 47° |
| 2026-05-06 04:37 | 36.47000 | -89.26741 | 38864 ft | 530 kts | 47° |
| 2026-05-06 04:37 | 36.51142 | -89.19226 | 38884 ft | 530 kts | 47° |
| 2026-05-06 04:38 | 36.55651 | -89.12128 | 38836 ft | 504 kts | 26° |
| 2026-05-06 04:38 | 36.58450 | -89.09642 | 38897 ft | 490 kts | 20° |
| 2026-05-06 04:38 | 36.61281 | -89.07272 | 38844 ft | 491 kts | 20° |
| 2026-05-06 04:39 | 36.66957 | -89.02517 | 38858 ft | 492 kts | 21° |
| 2026-05-06 04:39 | 36.72618 | -88.97673 | 38855 ft | 494 kts | 21° |
| 2026-05-06 04:40 | 36.78234 | -88.92800 | 38876 ft | 495 kts | 21° |
| 2026-05-06 04:40 | 36.83897 | -88.87864 | 38881 ft | 496 kts | 21° |
| 2026-05-06 04:41 | 36.89567 | -88.82913 | 38881 ft | 496 kts | 21° |
| 2026-05-06 04:41 | 36.95192 | -88.77998 | 38890 ft | 496 kts | 21° |
| 2026-05-06 04:42 | 37.00855 | -88.73043 | 38928 ft | 496 kts | 21° |
| 2026-05-06 04:42 | 37.06511 | -88.68086 | 38911 ft | 496 kts | 21° |
| 2026-05-06 04:43 | 37.12159 | -88.63124 | 38887 ft | 495 kts | 21° |
| 2026-05-06 04:43 | 37.17802 | -88.58157 | 38881 ft | 494 kts | 21° |
| 2026-05-06 04:44 | 37.23420 | -88.53205 | 38904 ft | 493 kts | 21° |
| 2026-05-06 04:44 | 37.29005 | -88.48273 | 38868 ft | 493 kts | 21° |
| 2026-05-06 04:45 | 37.34616 | -88.43309 | 38866 ft | 493 kts | 21° |
| 2026-05-06 04:45 | 37.37437 | -88.40813 | 38437 ft | 497 kts | 21° |
| 2026-05-06 04:45 | 37.40258 | -88.38314 | 37892 ft | 496 kts | 22° |
| 2026-05-06 04:45 | 37.43070 | -88.35812 | 37365 ft | 494 kts | 22° |
| 2026-05-06 04:46 | 37.45872 | -88.33319 | 36800 ft | 493 kts | 22° |
| 2026-05-06 04:46 | 37.48672 | -88.30828 | 36286 ft | 492 kts | 22° |
| 2026-05-06 04:46 | 37.51469 | -88.28337 | 35891 ft | 488 kts | 23° |
| 2026-05-06 04:46 | 37.54193 | -88.25897 | 35884 ft | 475 kts | 22° |
| 2026-05-06 04:47 | 37.56894 | -88.23487 | 35257 ft | 478 kts | 22° |
| 2026-05-06 04:47 | 37.59638 | -88.21055 | 34499 ft | 485 kts | 23° |
| 2026-05-06 04:47 | 37.62371 | -88.18620 | 33924 ft | 487 kts | 25° |
| 2026-05-06 04:47 | 37.64912 | -88.15709 | 33332 ft | 503 kts | 43° |
| 2026-05-06 04:48 | 37.66765 | -88.11927 | 33131 ft | 509 kts | 62° |
| 2026-05-06 04:48 | 37.68075 | -88.07789 | 32760 ft | 507 kts | 66° |
| 2026-05-06 04:48 | 37.69261 | -88.03595 | 32342 ft | 504 kts | 67° |
| 2026-05-06 04:48 | 37.70398 | -87.99434 | 32098 ft | 499 kts | 67° |
| 2026-05-06 04:49 | 37.71536 | -87.95308 | 31675 ft | 496 kts | 66° |
| 2026-05-06 04:49 | 37.72695 | -87.91208 | 31268 ft | 493 kts | 66° |
| 2026-05-06 04:49 | 37.73867 | -87.87143 | 30854 ft | 491 kts | 66° |
| 2026-05-06 04:49 | 37.75043 | -87.83113 | 30460 ft | 488 kts | 66° |
| 2026-05-06 04:50 | 37.76205 | -87.79147 | 30061 ft | 486 kts | 66° |
| 2026-05-06 04:50 | 37.77377 | -87.75144 | 29590 ft | 484 kts | 66° |
| 2026-05-06 04:50 | 37.78536 | -87.71173 | 29136 ft | 480 kts | 66° |
| 2026-05-06 04:50 | 37.79684 | -87.67226 | 28689 ft | 475 kts | 66° |
| 2026-05-06 04:51 | 37.80815 | -87.63328 | 28252 ft | 471 kts | 66° |
| 2026-05-06 04:51 | 37.81939 | -87.59451 | 27819 ft | 467 kts | 66° |
| 2026-05-06 04:51 | 37.83055 | -87.55595 | 27388 ft | 464 kts | 67° |
| 2026-05-06 04:51 | 37.84121 | -87.51765 | 26952 ft | 462 kts | 73° |
| 2026-05-06 04:52 | 37.84507 | -87.49124 | 26651 ft | 461 kts | 87° |
| 2026-05-06 04:52 | 37.84195 | -87.43862 | 26350 ft | 446 kts | 102° |
| 2026-05-06 04:52 | 37.83709 | -87.40017 | 26083 ft | 439 kts | 103° |
| 2026-05-06 04:52 | 37.83197 | -87.36228 | 25811 ft | 434 kts | 103° |
| 2026-05-06 04:53 | 37.82691 | -87.32478 | 25436 ft | 432 kts | 103° |
| 2026-05-06 04:53 | 37.82197 | -87.28732 | 25047 ft | 430 kts | 102° |
| 2026-05-06 04:53 | 37.81719 | -87.25015 | 24614 ft | 429 kts | 102° |
| 2026-05-06 04:53 | 37.81407 | -87.22551 | 24325 ft | 428 kts | 102° |
| 2026-05-06 04:54 | 37.80941 | -87.18828 | 23891 ft | 428 kts | 102° |
| 2026-05-06 04:54 | 37.80477 | -87.15103 | 23474 ft | 427 kts | 102° |
| 2026-05-06 04:54 | 37.80015 | -87.11395 | 22967 ft | 426 kts | 102° |
| 2026-05-06 04:54 | 37.79555 | -87.07704 | 22511 ft | 424 kts | 102° |
| 2026-05-06 04:55 | 37.79097 | -87.04038 | 22061 ft | 421 kts | 102° |
| 2026-05-06 04:55 | 37.78641 | -87.00395 | 21619 ft | 418 kts | 102° |
| 2026-05-06 04:55 | 37.78186 | -86.96780 | 21182 ft | 415 kts | 102° |
| 2026-05-06 04:55 | 37.77732 | -86.93185 | 20733 ft | 412 kts | 102° |
| 2026-05-06 04:56 | 37.77288 | -86.89678 | 20317 ft | 409 kts | 102° |
| 2026-05-06 04:56 | 37.76839 | -86.86133 | 19886 ft | 406 kts | 102° |
| 2026-05-06 04:56 | 37.76391 | -86.82613 | 19453 ft | 403 kts | 102° |
| 2026-05-06 04:56 | 37.75945 | -86.79122 | 19009 ft | 401 kts | 103° |
| 2026-05-06 04:57 | 37.75504 | -86.75666 | 18582 ft | 394 kts | 103° |
| 2026-05-06 04:57 | 37.75072 | -86.72283 | 18144 ft | 387 kts | 103° |
| 2026-05-06 04:57 | 37.74645 | -86.68953 | 17686 ft | 379 kts | 103° |
| 2026-05-06 04:57 | 37.74224 | -86.65689 | 17258 ft | 372 kts | 103° |
| 2026-05-06 04:58 | 37.73814 | -86.62500 | 16998 ft | 364 kts | 103° |
| 2026-05-06 04:58 | 37.73406 | -86.59351 | 16622 ft | 362 kts | 103° |
| 2026-05-06 04:58 | 37.73005 | -86.56260 | 16240 ft | 360 kts | 103° |
| 2026-05-06 04:58 | 37.72807 | -86.53107 | 15825 ft | 363 kts | 85° |
| 2026-05-06 04:59 | 37.73273 | -86.49973 | 15480 ft | 361 kts | 78° |
| 2026-05-06 04:59 | 37.73843 | -86.46889 | 15080 ft | 360 kts | 77° |
| 2026-05-06 04:59 | 37.74408 | -86.43809 | 14687 ft | 359 kts | 78° |
| 2026-05-06 04:59 | 37.74946 | -86.40741 | 14303 ft | 357 kts | 79° |
| 2026-05-06 05:00 | 37.75468 | -86.37668 | 13902 ft | 357 kts | 79° |
| 2026-05-06 05:00 | 37.75953 | -86.34597 | 13500 ft | 355 kts | 85° |
| 2026-05-06 05:00 | 37.75892 | -86.31522 | 13082 ft | 348 kts | 100° |
| 2026-05-06 05:00 | 37.75609 | -86.28506 | 12684 ft | 345 kts | 101° |
| 2026-05-06 05:01 | 37.75339 | -86.25496 | 12295 ft | 344 kts | 100° |
| 2026-05-06 05:01 | 37.75096 | -86.22542 | 11912 ft | 341 kts | 99° |
| 2026-05-06 05:01 | 37.74862 | -86.19565 | 11528 ft | 339 kts | 99° |
| 2026-05-06 05:01 | 37.74651 | -86.16610 | 11161 ft | 336 kts | 98° |
| 2026-05-06 05:02 | 37.74454 | -86.13680 | 10795 ft | 333 kts | 98° |
| 2026-05-06 05:02 | 37.74257 | -86.10768 | 10439 ft | 331 kts | 98° |
| 2026-05-06 05:02 | 37.74058 | -86.07882 | 10079 ft | 329 kts | 98° |
| 2026-05-06 05:02 | 37.73858 | -86.05009 | 9723 ft | 327 kts | 98° |
| 2026-05-06 05:03 | 37.73648 | -86.02146 | 9334 ft | 325 kts | 99° |
| 2026-05-06 05:03 | 37.73434 | -85.99308 | 8956 ft | 323 kts | 99° |
| 2026-05-06 05:03 | 37.73221 | -85.96488 | 8590 ft | 321 kts | 99° |
| 2026-05-06 05:03 | 37.73012 | -85.93731 | 8242 ft | 319 kts | 99° |
| 2026-05-06 05:04 | 37.72801 | -85.90943 | 7888 ft | 317 kts | 99° |
| 2026-05-06 05:04 | 37.72591 | -85.88181 | 7546 ft | 315 kts | 99° |
| 2026-05-06 05:04 | 37.72382 | -85.85432 | 7202 ft | 313 kts | 99° |
| 2026-05-06 05:04 | 37.72174 | -85.82700 | 6866 ft | 312 kts | 99° |
| 2026-05-06 05:05 | 37.71966 | -85.79984 | 6524 ft | 310 kts | 99° |
| 2026-05-06 05:05 | 37.71762 | -85.77260 | 6188 ft | 310 kts | 97° |
| 2026-05-06 05:05 | 37.72030 | -85.74566 | 6000 ft | 310 kts | 71° |
| 2026-05-06 05:05 | 37.72845 | -85.72076 | 5993 ft | 306 kts | 66° |
| 2026-05-06 05:06 | 37.73685 | -85.69644 | 5989 ft | 306 kts | 66° |
| 2026-05-06 05:06 | 37.74548 | -85.67176 | 5994 ft | 308 kts | 61° |
| 2026-05-06 05:06 | 37.75909 | -85.65125 | 5993 ft | 303 kts | 29° |
| 2026-05-06 05:06 | 37.77783 | -85.64044 | 5990 ft | 291 kts | 5° |
| 2026-05-06 05:07 | 37.79757 | -85.63729 | 6002 ft | 284 kts | 356° |
| 2026-05-06 05:07 | 37.81697 | -85.63522 | 5975 ft | 273 kts | 356° |
| 2026-05-06 05:07 | 37.83536 | -85.63354 | 5967 ft | 254 kts | 348° |
| 2026-05-06 05:07 | 37.85209 | -85.63721 | 5745 ft | 239 kts | 334° |
| 2026-05-06 05:08 | 37.86792 | -85.64291 | 5531 ft | 233 kts | 333° |
| 2026-05-06 05:08 | 37.88344 | -85.64848 | 5350 ft | 231 kts | 334° |
| 2026-05-06 05:08 | 37.89894 | -85.65385 | 5116 ft | 230 kts | 334° |
| 2026-05-06 05:08 | 37.91417 | -85.65901 | 4872 ft | 229 kts | 335° |
| 2026-05-06 05:09 | 37.92955 | -85.66412 | 4597 ft | 228 kts | 335° |
| 2026-05-06 05:09 | 37.94510 | -85.66925 | 4319 ft | 228 kts | 335° |
| 2026-05-06 05:09 | 37.96018 | -85.67423 | 4038 ft | 227 kts | 335° |
| 2026-05-06 05:09 | 37.97548 | -85.67925 | 3807 ft | 225 kts | 336° |
| 2026-05-06 05:10 | 37.99037 | -85.68408 | 3575 ft | 215 kts | 336° |
| 2026-05-06 05:10 | 38.00460 | -85.68872 | 3316 ft | 206 kts | 336° |
| 2026-05-06 05:10 | 38.01812 | -85.69308 | 3089 ft | 198 kts | 336° |
| 2026-05-06 05:10 | 38.03153 | -85.69739 | 2905 ft | 197 kts | 336° |
| 2026-05-06 05:11 | 38.04458 | -85.70167 | 2671 ft | 189 kts | 336° |
| 2026-05-06 05:11 | 38.05706 | -85.70579 | 2520 ft | 180 kts | 336° |
| 2026-05-06 05:11 | 38.06881 | -85.70968 | 2347 ft | 172 kts | 336° |
| 2026-05-06 05:11 | 38.08025 | -85.71344 | 2162 ft | 169 kts | 337° |
| 2026-05-06 05:12 | 38.09146 | -85.71727 | 1897 ft | 162 kts | 340° |
| 2026-05-06 05:12 | 38.10183 | -85.72089 | 1680 ft | 150 kts | 340° |
| 2026-05-06 05:12 | 38.11195 | -85.72402 | 1489 ft | 148 kts | 341° |
| 2026-05-06 05:12 | 38.12132 | -85.72708 | 1302 ft | 134 kts | 343° |
| 2026-05-06 05:13 | 38.12995 | -85.72992 | 1122 ft | 126 kts | 341° |
| 2026-05-06 05:13 | 38.13856 | -85.73278 | 932 ft | 126 kts | 343° |
| 2026-05-06 05:13 | 38.14608 | -85.73527 | 795 ft | 131 kts | 345° |
| 2026-05-06 05:13 | 38.15499 | -85.73826 | 562 ft | 130 kts | 343° |
| 2026-05-06 05:14 | 38.16332 | -85.74100 | 640 ft | 132 kts | 342° |
| 2026-05-06 05:14 | 38.17218 | -85.74413 | 1551 ft | 136 kts | 336° |
| 2026-05-06 05:14 | 38.18323 | -85.74976 | 1662 ft | 202 kts | 336° |
| 2026-05-06 05:14 | 38.19623 | -85.75638 | 1978 ft | 213 kts | 333° |
| 2026-05-06 05:15 | 38.20966 | -85.76539 | 2079 ft | 216 kts | 323° |
| 2026-05-06 05:15 | 38.22155 | -85.77505 | 2700 ft | 194 kts | 322° |
| 2026-05-06 05:15 | 38.23415 | -85.78573 | 2218 ft | 233 kts | 326° |
| 2026-05-06 05:15 | 38.24867 | -85.79566 | 2486 ft | 260 kts | 325° |
| 2026-05-06 05:16 | 38.25922 | -85.80909 | 3462 ft | 229 kts | 300° |
| 2026-05-06 05:16 | 38.13153 | -85.73045 | 1100 ft | 125 kts | 341° |
| 2026-05-06 05:16 | 38.14059 | -85.73348 | 733 ft | 173 kts | 342° |
| 2026-05-06 05:16 | 38.13178 | -85.73053 | 1093 ft | 126 kts | 342° |
| 2026-05-06 05:17 | 38.14036 | -85.73338 | 907 ft | 125 kts | 343° |
| 2026-05-06 05:17 | 38.14908 | -85.73616 | 687 ft | 133 kts | 344° |
| 2026-05-06 05:17 | 38.15786 | -85.73917 | 475 ft | 125 kts | 344° |
| 2026-05-06 05:17 | 38.15178 | -85.73711 | 636 ft | 133 kts | 341° |
| 2026-05-06 05:18 | 38.16023 | -85.73998 | 504 ft | 118 kts | 343° |
| 2026-05-06 05:18 | 38.16892 | -85.74283 | 1205 ft | 126 kts | 341° |
| 2026-05-06 05:18 | 38.13877 | -85.73284 | 925 ft | 135 kts | 343° |
| 2026-05-06 05:18 | 38.14515 | -85.73503 | 852 ft | 152 kts | 342° |
| 2026-05-06 05:19 | 38.15482 | -85.73827 | 573 ft | 136 kts | 344° |
| 2026-05-06 05:19 | 38.16319 | -85.74090 | 479 ft | 100 kts | 346° |
| 2026-05-06 05:19 | 38.16762 | -85.74234 | 482 ft | 30 kts | 346° |
| 2026-05-06 05:19 | 38.16890 | -85.74233 | 481 ft | 14 kts | 64° |
| 2026-05-06 05:20 | 38.16877 | -85.74164 | 479 ft | 0 kts | 136° |